Aérodrome :
LOGIN :

S'inscrire | Disclaimer

   EN    FR    IT 

 










Légende :    VFR   VFR Marginal   IFR   IFR Intensif   IFR Très Intensif
Visi : 
Plafond : 
>= 8 km
>= 3000ft
5 à 8 km
1000 à 3000 ft
1500m à 5 km
500 à 1000 ft
800 à 1500m
200 à 500 ft
< 800m
< 200 ft
Symboles :   Orages  Brouillard  Fortes neiges  Fortes précipitations  Vent > 20 kt
SIGMETs :   Divers  Orages  Givrage  Turbulence  Onde Orograph.  Cendres Volcan.







- Altitude de l'aérodrome : 512 ft
- Code IATA : URO
- Voir les cartes d'approche


LFOP - Rouen Vallée de Seine

DERNIER METAR :
  • 251800Z AUTO 35010KT CAVOK 07/M03 Q1012 NOSIG

METARs EXPIRÉS :
  • 251730Z AUTO 36010KT CAVOK 07/M03 Q1012 NOSIG
  • 251700Z AUTO 02009KT CAVOK 08/M03 Q1012 NOSIG
  • 251630Z AUTO 36010KT 330V030 9999 FEW047 BKN190 08/M03 Q1012 NOSIG
  • 251600Z AUTO 36010KT 330V030 9999 FEW045 BKN190 08/M03 Q1012 NOSIG
  • 251530Z AUTO 01010KT 330V030 CAVOK 08/M03 Q1012 NOSIG

TAF TAF LFOP
Valide du 25 à 18h jusqu'au 26 à 18h UTC


251700Z 2518/2618 35008KT 9999 SCT040
TEMPO 2609/2615 35015G25KT 3000 SHRA BKN020CB
ATIS : +33 2 35 80 80 34
Météo : +33 2 32 86 52 80
Pas de NOTAMs connus pour ce terrain.



MET'MAP, la Météo Aéronautique d'un coup d'oeil ! - Copyright ORBIFLY Décembre 2007 - Disclaimer

ORBIFLY MET'MAP TEAM :

Programmation & Développement : Alexandra Zaïnal
Conception & Développement : Baudouin d'Aumeries
Co-Programmation & Développement : Marc-Olivier Méhu
Soutien technique & logistique : Manuel Goepfert

Contact : metmap@orbifly.com




SOURCES & CREDITS :

   NOAA